Tiempo atmosférico en la estación meteorológica de Espolla, Girona (94 m.)



Fecha
DESCASC
Temp. máxima en grados centígrados (hora)
DESCASC
Temp. mínima en grados centígrados (hora)
DESCASC
Temp. media en grados centígrados
DESCASC
Racha de viento máxima en m/sg (hora)
DESCASC
Velocidad máxima media en intervalos de 10 minutos(hora)
DESCASC
Precipitaciones diarias en mm
DESCASC
Precipitaciones de 00:00 a 06:00 en mm
DESCASC
Precipitaciones de 06:00 a 12:00 en mm
DESCASC
Precipitaciones de 12:00 a 18:00 en mm
DESCASC
Precipitaciones de 18:00 a 24:00 en mm
DESCASC
18-01-2018 14.7 (15:40) 3.3 (04:50) 9 5 (02:10) 3.61 (06:30) 0 0 0 0 0
17-01-2018 15.1 (09:50) 6.6 (01:40) 10.9 23.61 (12:00) 12.5 (11:30) 0 0 0 0 0
16-01-2018 18.6 (14:20) 1.9 (07:20) 10.3 5.83 (20:10) 3.89 (21:30) 0 0 0 0 0
15-01-2018 14 (13:30) 4.6 (08:40) 9.3 7.78 (01:20) 3.89 (14:40) 0 0 0 0 0
14-01-2018 10.3 (11:50) 7.6 (00:00) 9 15.28 (21:10) 6.94 (21:10) 3 2 0.6 0.4 0
13-01-2018 12.4 (14:00) 1 (00:00) 6.7 10 (14:10) 6.11 (14:10) 2.2 0 0 0 2.2
12-01-2018 13 (13:00) 3.8 (00:00) 8.4 22.22 (07:00) 14.17 (06:50) 0 0 0 0 0
11-01-2018 11.6 (13:00) 7.1 (00:00) 9.4 18.61 (05:00) 10 (04:50) 1.8 1.8 0 0 0
10-01-2018 14.6 (15:10) 3.1 (00:00) 8.9 4.72 (02:00) 3.33 (02:20) 0 0 0 0 0
09-01-2018 15.6 (15:10) 4.6 (00:00) 10.1 9.44 (16:10) 5.83 (16:10) 0 0 0 0 0
08-01-2018 12.4 (13:50) 5.1 (00:00) 8.7 9.72 (17:00) 5.83 (17:10) 0.2 0.2 0 0 0
07-01-2018 14.8 (09:20) 8 (00:00) 11.4 18.33 (19:40) 8.61 (19:40) 26.4 0 0 17.4 9
06-01-2018 14.2 (15:00) 5 (00:00) 9.6 10.56 (20:40) 5.56 (20:30) 1.8 0 0 0 1.8
05-01-2018 19 (16:00) 6.8 (00:00) 12.9 4.17 (18:40) 2.78 (14:30) 0 0 0 0 0
04-01-2018 20.9 (13:30) 9.3 (07:40) 15.1 14.72 (12:00) 8.06 (11:50) 0 0 0 0 0
03-01-2018 20.6 (14:10) 7.4 (00:00) 14 9.44 (16:50) 3.61 (14:10) 0 0 0 0 0
02-01-2018 13.8 (13:50) 5.2 (00:00) 9.5 20.28 (00:40) 10.83 (00:50) 0.2 0.2 0 0 0
01-01-2018 15.9 (15:20) 7.5 (00:00) 11.7 23.33 (05:10) 11.67 (05:10) 8.4 0 0 0 8.4
31-12-2017 20 (16:10) 6.1 (00:00) 13 19.44 (22:40) 10.28 (22:50) 0 0 0 0 0
30-12-2017 21 (15:20) 3 (00:00) 12 10.28 (14:50) 6.11 (14:00) 0 0 0 0 0
29-12-2017 11.2 (15:50) 2.4 (00:00) 6.8 14.72 (00:30) 8.61 (00:30) 0.4 0 0 0.4 0
28-12-2017 10.7 (12:30) 5.1 (00:00) 7.9 19.17 (04:30) 10.56 (06:50) 0.6 0.6 0 0 0
27-12-2017 13.5 (12:30) 4.2 (00:00) 8.8 29.17 (14:50) 16.11 (14:50) 2.2 0 0 1.6 0.6
26-12-2017 12.8 (14:10) 4.1 (00:00) 8.5 9.72 (07:50) 4.17 (07:50) 0 0 0 0 0
25-12-2017 14.9 (16:00) 3.9 (00:00) 9.4 4.44 (05:50) 3.61 (05:50) 0 0 0 0 0
24-12-2017 13.8 (15:20) 4.2 (00:00) 9 5 (01:50) 3.61 (02:00) 0 0 0 0 0

Gráficas

Temp. máximas Temp. mínimas Temp. medias Precipitaciones Rachas de viento máximas Velocidades máximas media en intervalos de 10 minutos

Datos horarios

Fecha y hora oficial Temperatura (ºC) Velocidad del viento (km/h) Dirección del viento Racha (km/h) Dirección de racha Precipitación (mm) Presión (hPa) Tendencia (hPa) Humedad (%)
2018-01-22 23:00:00 15.3 13 Nordeste 50 Noroeste 0 -- -- 53
2018-01-22 22:00:00 15.8 33 Norte 68 Norte 0 -- -- 59
2018-01-22 21:00:00 10.9 7 Oeste 21 Noroeste 0 -- -- 91
2018-01-22 20:00:00 10.2 3 Nordeste 15 Nordeste 0 -- -- 89
2018-01-22 19:00:00 10.7 3 Nordeste 10 Norte 0 -- -- 89
2018-01-22 18:00:00 13.2 3 Este 6 Sur 0 -- -- 82
2018-01-22 17:00:00 14.2 5 Sudoeste 8 Sur 0 -- -- 81
2018-01-22 16:00:00 14.5 2 Norte 4 Norte 0 -- -- 77
2018-01-22 15:00:00 14.8 0 Calma 5 Oeste 0 -- -- 73
2018-01-22 14:00:00 15 3 Oeste 6 Oeste 0 -- -- 70
2018-01-22 13:00:00 15.7 4 Sudoeste 16 Sur 0 -- -- 65
2018-01-22 12:00:00 17.5 8 Sur 13 Sur 0 -- -- 58
2018-01-22 11:00:00 16 2 Sur 7 Sudoeste 0 -- -- 62
2018-01-22 10:00:00 12.6 5 Sur 9 Sudoeste 0 -- -- 74
2018-01-22 09:00:00 8.7 3 Nordeste 7 Este 0 -- -- 87
2018-01-22 08:00:00 7.9 0 Calma 8 Nordeste 0 -- -- 85
2018-01-22 07:00:00 8.4 3 Norte 13 Norte 0 -- -- 85
2018-01-22 06:00:00 7.9 4 Nordeste 10 Noroeste 0 -- -- 85
2018-01-22 05:00:00 9.2 4 Norte 12 Nordeste 0 -- -- 79
2018-01-22 04:00:00 8.8 3 Este 12 Norte 0 -- -- 79
2018-01-22 03:00:00 11.4 3 Norte 16 Nordeste 0 -- -- 72
2018-01-22 02:00:00 11.8 4 Este 17 Norte 0 -- -- 71
2018-01-22 01:00:00 12.5 7 Norte 25 Norte 0 -- -- 69
2018-01-22 00:00:00 11.5 4 Norte 12 Norte 0 -- -- 75
2018-01-21 23:00:00 13.2 6 Sur 14 Norte 0 -- -- 69
2018-01-21 22:00:00 12.9 2 Nordeste 14 Norte 0 -- -- 71
2018-01-21 21:00:00 14.9 6 Nordeste 13 Oeste 0 -- -- 64
2018-01-21 20:00:00 18.9 10 Noroeste 50 Norte 0 -- -- 51
2018-01-21 19:00:00 19.5 32 Norte 71 Norte 0 -- -- 50
2018-01-21 18:00:00 18.6 42 Norte 93 Noroeste 0 -- -- 55
2018-01-21 17:00:00 19.4 48 Norte 90 Noroeste 0 -- -- 53
2018-01-21 16:00:00 19.1 44 Norte 89 Noroeste 0 -- -- 55
2018-01-21 15:00:00 20 43 Norte 82 Noroeste 0 -- -- 50
2018-01-21 14:00:00 20.2 33 Norte 68 Norte 0 -- -- 52
2018-01-21 13:00:00 21.7 24 Norte 51 Noroeste 0 -- -- 48
2018-01-21 12:00:00 20.5 27 Norte 53 Norte 0 -- -- 50
2018-01-21 11:00:00 19.8 24 Noroeste 57 Noroeste 0 -- -- 52
2018-01-21 10:00:00 18.1 25 Norte 58 Norte 0 -- -- 55
2018-01-21 09:00:00 17.9 31 Noroeste 67 Noroeste 0 -- -- 55
2018-01-21 08:00:00 17.4 40 Norte 78 Noroeste 0 -- -- 56
2018-01-21 07:00:00 18 42 Norte 67 Noroeste 0 -- -- 53
2018-01-21 06:00:00 18.1 29 Norte 57 Norte 0 -- -- 52
2018-01-21 05:00:00 18 30 Norte 58 Noroeste 0 -- -- 51
2018-01-21 04:00:00 18.1 31 Norte 66 Norte 0 -- -- 50
2018-01-21 03:00:00 18.1 32 Norte 56 Noroeste 0 -- -- 51
2018-01-21 02:00:00 9.1 6 Noroeste 18 Noroeste 0 -- -- 76
2018-01-21 01:00:00 7.8 4 Nordeste 10 Norte 0 -- -- 82
2018-01-21 00:00:00 7.1 4 Nordeste 13 Norte 0 -- -- 85
2018-01-20 23:00:00 7.1 6 Norte 14 Nordeste 0 -- -- 85
2018-01-20 22:00:00 7.1 3 Este 11 Norte 0 -- -- 85
2018-01-20 21:00:00 7.2 0 Calma 8 Norte 0 -- -- 85
2018-01-20 20:00:00 8.2 3 Norte 14 Nordeste 0 -- -- 80
2018-01-20 19:00:00 8.4 7 Nordeste 13 Nordeste 0 -- -- 82
2018-01-20 18:00:00 9.7 2 Nordeste 9 Sudeste 0 -- -- 78
2018-01-20 17:00:00 11.6 2 Sur 7 Oeste 0 -- -- 68
2018-01-20 16:00:00 12.6 0 Calma 10 Sudoeste 0 -- -- 59
2018-01-20 15:00:00 11.5 7 Sudoeste 12 Sudoeste 0 -- -- 67
2018-01-20 14:00:00 11.2 0 Calma 7 Sur 0 -- -- 65
2018-01-20 13:00:00 10.9 4 Sur 8 Sur 0 -- -- 67
2018-01-20 12:00:00 10.3 0 Calma 6 Sur 0 -- -- 65
2018-01-20 11:00:00 9.4 0 Calma 3 Noroeste 0 -- -- 66
2018-01-20 10:00:00 8.1 0 Calma 13 Nordeste 0 -- -- 67
2018-01-20 09:00:00 5.9 8 Nordeste 12 Nordeste 0 -- -- 76
2018-01-20 08:00:00 6.1 6 Nordeste 10 Nordeste 0 -- -- 70
2018-01-20 07:00:00 8.2 5 Sur 29 Norte 0 -- -- 62
2018-01-20 06:00:00 10.4 14 Norte 44 Norte 0 -- -- 53
2018-01-20 05:00:00 10.4 21 Norte 42 Norte 0 -- -- 53
2018-01-20 04:00:00 10.1 23 Norte 58 Norte 0 -- -- 60
2018-01-20 03:00:00 10.4 30 Norte 54 Nordeste 0 -- -- 60
2018-01-20 02:00:00 10.6 28 Norte 53 Norte 0 -- -- 62
2018-01-20 01:00:00 10.9 18 Norte 40 Norte 0 -- -- 63
2018-01-20 00:00:00 5.6 0 Calma 11 Sudoeste 0 -- -- 83
2018-01-19 23:00:00 7.9 5 Sur 12 Sur 0 -- -- 74
2018-01-19 22:00:00 8.6 5 Nordeste 16 Nordeste 0 -- -- 67
2018-01-19 21:00:00 8.6 5 Sur 11 Norte 0 -- -- 72
2018-01-19 20:00:00 10.5 8 Norte 13 Norte 0 -- -- 65
2018-01-19 19:00:00 10 3 Norte 8 Nordeste 0 -- -- 75
2018-01-19 18:00:00 13.3 0 Calma 11 Sur 0 -- -- 65
2018-01-19 17:00:00 15.3 7 Sudoeste 16 Sur 0 -- -- 55
2018-01-19 16:00:00 16.8 6 Sudoeste 19 Norte 0 -- -- 50
2018-01-19 15:00:00 17.1 6 Noroeste 25 Noroeste 0 -- -- 48
2018-01-19 14:00:00 15.9 5 Sudoeste 13 Sudoeste 0 -- -- 52
2018-01-19 13:00:00 15.3 4 Sudoeste 11 Sudoeste 0 -- -- 52
2018-01-19 12:00:00 13.6 4 Sudoeste 9 Sur 0 -- -- 63
2018-01-19 11:00:00 10.6 0 Calma 5 Sudoeste 0 -- -- 79
2018-01-19 10:00:00 6 3 Sur 9 Norte 0 -- -- 85
2018-01-19 09:00:00 5.3 6 Nordeste 12 Nordeste 0 -- -- 87
2018-01-19 08:00:00 4.1 3 Norte 15 Nordeste 0 -- -- 89
2018-01-19 07:00:00 6.5 9 Nordeste 19 Nordeste 0 -- -- 81
2018-01-19 06:00:00 5.3 4 Nordeste 12 Nordeste 0 -- -- 85
2018-01-19 05:00:00 5 2 Norte 7 Nordeste 0 -- -- 89
2018-01-19 04:00:00 6.1 9 Norte 14 Nordeste 0 -- -- 86
2018-01-19 03:00:00 5.6 4 Nordeste 13 Nordeste 0 -- -- 90
2018-01-19 02:00:00 5.8 5 Norte 17 Nordeste 0 -- -- 90
2018-01-19 01:00:00 6.2 4 Nordeste 13 Nordeste 0 -- -- 90
2018-01-19 00:00:00 5.8 4 Nordeste 10 Norte 0 -- -- 90
2018-01-18 23:00:00 5.9 3 Nordeste 9 Norte 0 -- -- 91
2018-01-18 22:00:00 6 4 Norte 11 Norte 0 -- -- 91
2018-01-18 21:00:00 6.7 7 Nordeste 12 Norte 0 -- -- 90
2018-01-18 20:00:00 6.7 7 Nordeste 12 Nordeste 0 -- -- 90
2018-01-18 19:00:00 7.8 5 Nordeste 10 Nordeste 0 -- -- 86
2018-01-18 18:00:00 11 0 Calma 9 Sur 0 -- -- 78
2018-01-18 17:00:00 13.6 6 Sur 10 Sur 0 -- -- 69
2018-01-18 16:00:00 14.7 4 Sur 14 Sudoeste 0 -- -- 60
2018-01-18 15:00:00 14.2 7 Sudoeste 15 Sudoeste 0 -- -- 64
2018-01-18 14:00:00 14 7 Sudoeste 17 Sudoeste 0 -- -- 66
2018-01-18 13:00:00 13.1 8 Sur 13 Sur 0 -- -- 65
2018-01-18 12:00:00 12.1 5 Sudoeste 10 Sudoeste 0 -- -- 58
2018-01-18 11:00:00 10.5 4 Sudoeste 10 Sur 0 -- -- 61
2018-01-18 10:00:00 8.3 0 Calma 9 Norte 0 -- -- 73
2018-01-18 09:00:00 4.4 4 Norte 15 Nordeste 0 -- -- 82
2018-01-18 08:00:00 4.7 7 Nordeste 17 Norte 0 -- -- 78
2018-01-18 07:00:00 4.5 9 Nordeste 17 Nordeste 0 -- -- 79
2018-01-18 06:00:00 4.2 5 Nordeste 10 Nordeste 0 -- -- 80
2018-01-18 05:00:00 3.4 3 Nordeste 8 Nordeste 0 -- -- 84
2018-01-18 04:00:00 4.3 3 Nordeste 6 Norte 0 -- -- 80
2018-01-18 03:00:00 6 3 Norte 18 Nordeste 0 -- -- 73
2018-01-18 02:00:00 6.6 8 Nordeste 15 Nordeste 0 -- -- 72
2018-01-18 01:00:00 7.9 2 Sur 17 Norte 0 -- -- 68
2018-01-18 00:00:00 10.8 14 Norte 33 Norte 0 -- -- 56
2018-01-17 23:00:00 11.1 18 Norte 48 Norte 0 -- -- 55
2018-01-17 22:00:00 11.1 24 Norte 45 Nordeste 0 -- -- 54
2018-01-17 21:00:00 11.4 19 Norte 54 Norte 0 -- -- 51
2018-01-17 20:00:00 11.4 28 Norte 54 Norte 0 -- -- 55
2018-01-17 19:00:00 11.2 22 Norte 46 Norte 0 -- -- 53
2018-01-17 18:00:00 11.7 23 Norte 52 Norte 0 -- -- 48
2018-01-17 17:00:00 12.9 25 Norte 59 Norte 0 -- -- 40
2018-01-17 16:00:00 12.5 24 Norte 68 Norte 0 -- -- 51
2018-01-17 15:00:00 13.7 30 Norte 65 Norte 0 -- -- 49
2018-01-17 14:00:00 13.6 36 Norte 73 Nordeste 0 -- -- 47
2018-01-17 13:00:00 14.2 39 Norte 69 Norte 0 -- -- 46
2018-01-17 12:00:00 13.9 35 Norte 85 Norte 0 -- -- 47
2018-01-17 11:00:00 13.3 36 Norte 71 Norte 0 -- -- 54
2018-01-17 10:00:00 14.6 32 Norte 72 Norte 0 -- -- 44
2018-01-17 09:00:00 14.3 36 Norte 64 Norte 0 -- -- 46
2018-01-17 08:00:00 13.9 39 Norte 70 Norte 0 -- -- 46
2018-01-17 07:00:00 13.9 31 Norte 60 Norte 0 -- -- 52
2018-01-17 06:00:00 8.6 6 Oeste 21 Noroeste 0 -- -- 78
2018-01-17 05:00:00 7.2 8 Noroeste 21 Nordeste 0 -- -- 79
2018-01-17 04:00:00 8.1 4 Nordeste 21 Nordeste 0 -- -- 77
2018-01-17 03:00:00 7.1 5 Norte 13 Nordeste 0 -- -- 80
2018-01-17 02:00:00 6.9 5 Nordeste 13 Nordeste 0 -- -- 81
2018-01-17 01:00:00 7.6 2 Nordeste 17 Norte 0 -- -- 76
2018-01-17 00:00:00 7.6 8 Nordeste 18 Nordeste 0 -- -- 76
2018-01-16 23:00:00 7.6 7 Nordeste 15 Nordeste 0 -- -- 76
2018-01-16 22:00:00 8.7 7 Nordeste 21 Nordeste 0 -- -- 71
2018-01-16 21:00:00 9.6 11 Nordeste 21 Nordeste 0 -- -- 68
2018-01-16 20:00:00 9.4 8 Nordeste 18 Nordeste 0 -- -- 71
2018-01-16 19:00:00 10.1 6 Nordeste 12 Nordeste 0 -- -- 69
2018-01-16 18:00:00 12.8 5 Nordeste 9 Nordeste 0 -- -- 61
2018-01-16 17:00:00 17.9 2 Sudoeste 11 Sudoeste 0 -- -- 42
2018-01-16 16:00:00 18.3 6 Sudoeste 13 Sur 0 -- -- 41
2018-01-16 15:00:00 17.9 7 Sudoeste 17 Sur 0 -- -- 39
2018-01-16 14:00:00 18.1 6 Oeste 15 Oeste 0 -- -- 38
2018-01-16 13:00:00 17.6 4 Sudoeste 10 Sudoeste 0 -- -- 45
2018-01-16 12:00:00 14.4 4 Sur 7 Sudoeste 0 -- -- 56
2018-01-16 11:00:00 12 2 Sur 8 Sudoeste 0 -- -- 63
2018-01-16 10:00:00 8.8 0 Calma 6 Nordeste 0 -- -- 74
2018-01-16 09:00:00 3.7 0 Calma 9 Nordeste 0 -- -- 89
2018-01-16 08:00:00 2.2 0 Calma 5 Norte 0 -- -- 92
2018-01-16 07:00:00 2.6 3 Norte 9 Nordeste 0 -- -- 91
2018-01-16 06:00:00 3.6 3 Nordeste 12 Nordeste 0 -- -- 88
2018-01-16 05:00:00 3.6 4 Nordeste 12 Norte 0 -- -- 92
2018-01-16 04:00:00 4.3 2 Nordeste 9 Norte 0 -- -- 91
2018-01-16 03:00:00 4.6 3 Norte 10 Nordeste 0 -- -- 92
2018-01-16 02:00:00 6 0 Calma 9 Nordeste 0 -- -- 89
2018-01-16 01:00:00 7.7 2 Sur 8 Nordeste 0 -- -- 87
2018-01-16 00:00:00 7.7 0 Calma 8 Nordeste 0 -- -- 86
2018-01-15 23:00:00 7.6 4 Este 6 Este 0 -- -- 87
2018-01-15 22:00:00 7.7 0 Calma 6 Norte 0 -- -- 86
2018-01-15 21:00:00 8 3 Este 16 Nordeste 0 -- -- 83
2018-01-15 20:00:00 8.2 6 Nordeste 11 Nordeste 0 -- -- 81
2018-01-15 19:00:00 9 8 Nordeste 12 Nordeste 0 -- -- 78
2018-01-15 18:00:00 9.4 5 Nordeste 8 Nordeste 0 -- -- 77
2018-01-15 17:00:00 11.3 3 Sudeste 20 Sur 0 -- -- 66
2018-01-15 16:00:00 12.5 13 Sur 22 Sur 0 -- -- 63
2018-01-15 15:00:00 13.2 11 Sur 22 Sur 0 -- -- 58
2018-01-15 14:00:00 13.5 13 Sur 22 Sur 0 -- -- 54
2018-01-15 13:00:00 13.7 12 Sur 24 Sur 0 -- -- 54
2018-01-15 12:00:00 13.4 9 Sur 15 Sur 0 -- -- 55
2018-01-15 11:00:00 12.3 5 Sur 8 Sur 0 -- -- 56
2018-01-15 10:00:00 9.6 5 Sudeste 9 Sudeste 0 -- -- 69
2018-01-15 09:00:00 5.4 3 Este 8 Norte 0 -- -- 86
2018-01-15 08:00:00 5.6 3 Norte 11 Norte 0 -- -- 83
2018-01-15 07:00:00 6.7 5 Sur 12 Oeste 0 -- -- 82
2018-01-15 06:00:00 6.8 3 Sudeste 10 Nordeste 0 -- -- 81
2018-01-15 05:00:00 7.2 4 Sudeste 11 Este 0 -- -- 78
2018-01-15 04:00:00 8.3 5 Sur 14 Oeste 0 -- -- 74
2018-01-15 03:00:00 8.7 0 Calma 13 Nordeste 0 -- -- 71
2018-01-15 02:00:00 9.5 6 Este 28 Norte 0 -- -- 66
2018-01-15 01:00:00 9.5 12 Norte 24 Noroeste 0 -- -- 63
2018-01-15 00:00:00 9.6 6 Sur 35 Noroeste 0 -- -- 63
2018-01-14 23:00:00 9.8 13 Nordeste 49 Norte 0 -- -- 64
2018-01-14 22:00:00 10.1 20 Norte 55 Norte 0 -- -- 59
2018-01-14 21:00:00 9.5 21 Norte 42 Norte 0 -- -- 64
2018-01-14 20:00:00 8.2 5 Oeste 14 Oeste 0 -- -- 74
2018-01-14 19:00:00 8.7 3 Sudoeste 24 Nordeste 0 -- -- 75
2018-01-14 18:00:00 8.7 5 Norte 20 Nordeste 0 -- -- 74
2018-01-14 17:00:00 8.8 8 Nordeste 20 Nordeste 0.2 -- -- 79
2018-01-14 16:00:00 9 14 Nordeste 25 Nordeste 0.2 -- -- 79
2018-01-14 15:00:00 10.1 13 Nordeste 23 Nordeste 0 -- -- 70
2018-01-14 14:00:00 10.1 6 Nordeste 10 Nordeste 0 -- -- 69
2018-01-14 13:00:00 9.8 2 Oeste 13 Nordeste 0 -- -- 83
2018-01-14 12:00:00 10.3 5 Nordeste 17 Nordeste 0 -- -- 71
2018-01-14 11:00:00 8.7 8 Nordeste 15 Nordeste 0 -- -- 82
2018-01-14 10:00:00 7.7 10 Nordeste 15 Nordeste 0.2 -- -- 87
2018-01-14 09:00:00 7.8 6 Nordeste 15 Nordeste 0.2 -- -- 93
2018-01-14 08:00:00 8 8 Nordeste 13 Nordeste 0.2 -- -- 95
2018-01-14 07:00:00 7.8 5 Nordeste 9 Nordeste 0 -- -- 96
2018-01-14 06:00:00 7.9 0 Calma 4 Sudoeste 0 -- -- 96
2018-01-14 05:00:00 8.3 5 Este 13 Este 0 -- -- 96
2018-01-14 04:00:00 8.5 2 Oeste 6 Oeste 0.2 -- -- 96
2018-01-14 03:00:00 8.6 0 Calma 13 Sur 0 -- -- 95
2018-01-14 02:00:00 8.9 10 Sudeste 16 Sur 0.4 -- -- 95
2018-01-14 01:00:00 9 0 Calma 10 Sudoeste 1.4 -- -- 95
2018-01-14 00:00:00 9.1 5 Sudoeste 19 Sudoeste 2.2 -- -- 94
2018-01-13 23:00:00 9.3 5 Oeste 24 Sudoeste 0 -- -- 90
2018-01-13 22:00:00 9.8 9 Sudoeste 15 Sudoeste 0 -- -- 82
2018-01-13 21:00:00 9.8 6 Sudoeste 17 Sur 0 -- -- 78
2018-01-13 20:00:00 10.1 9 Sur 21 Sur 0 -- -- 74
2018-01-13 19:00:00 10.3 10 Sur 24 Sur 0 -- -- 70
2018-01-13 18:00:00 10.6 10 Sudoeste 32 Sudoeste 0 -- -- 67
2018-01-13 17:00:00 11.1 14 Sur 31 Sur 0 -- -- 66
2018-01-13 16:00:00 11.4 17 Sur 31 Sur 0 -- -- 63
2018-01-13 15:00:00 12.1 19 Sudoeste 36 Sudoeste 0 -- -- 54
2018-01-13 14:00:00 12.4 18 Sudoeste 31 Sur 0 -- -- 54
2018-01-13 13:00:00 9.4 5 Sur 11 Sudoeste 0 -- -- 64
2018-01-13 12:00:00 7.7 3 Sudeste 9 Sur 0 -- -- 62
2018-01-13 11:00:00 6.8 3 Sudoeste 6 Sur 0 -- -- 66
2018-01-13 10:00:00 4.6 0 Calma 13 Nordeste 0 -- -- 72
2018-01-13 09:00:00 2.6 12 Nordeste 19 Nordeste 0 -- -- 81
2018-01-13 08:00:00 1.1 3 Nordeste 10 Nordeste 0 -- -- 86
2018-01-13 07:00:00 1.6 3 Norte 9 Nordeste 0 -- -- 85
2018-01-13 06:00:00 1.9 2 Norte 14 Nordeste 0 -- -- 83
2018-01-13 05:00:00 2.7 13 Nordeste 19 Nordeste 0 -- -- 82
2018-01-13 04:00:00 2.2 3 Nordeste 13 Nordeste 0 -- -- 82
2018-01-13 03:00:00 3.3 5 Nordeste 15 Norte 0 -- -- 77
2018-01-13 02:00:00 4.1 10 Nordeste 17 Nordeste 0 -- -- 73
2018-01-13 01:00:00 3.6 4 Norte 9 Nordeste 0 -- -- 76
2018-01-13 00:00:00 3.8 3 Nordeste 8 Norte 0 -- -- 74
2018-01-12 23:00:00 5.2 2 Sudeste 9 Sudoeste 0 -- -- 70
2018-01-12 22:00:00 8.8 7 Norte 25 Noroeste 0 -- -- 53
2018-01-12 21:00:00 7.7 5 Noroeste 14 Norte 0 -- -- 63
2018-01-12 20:00:00 9.1 6 Noroeste 27 Norte 0 -- -- 58
2018-01-12 19:00:00 9.7 13 Norte 37 Norte 0 -- -- 54
2018-01-12 18:00:00 10.4 17 Norte 40 Norte 0 -- -- 48
2018-01-12 17:00:00 11.8 9 Este 36 Norte 0 -- -- 46
2018-01-12 16:00:00 12.9 9 Nordeste 55 Noroeste 0 -- -- 43
2018-01-12 15:00:00 12.8 30 Norte 64 Noroeste 0 -- -- 43
2018-01-12 14:00:00 12.6 33 Norte 66 Norte 0 -- -- 44
2018-01-12 13:00:00 13 24 Norte 48 Noroeste 0 -- -- 42
2018-01-12 12:00:00 12.7 16 Noroeste 37 Noroeste 0 -- -- 44
2018-01-12 11:00:00 11.3 28 Norte 54 Norte 0 -- -- 47
2018-01-12 10:00:00 10.7 29 Norte 58 Norte 0 -- -- 47
2018-01-12 09:00:00 9.3 36 Norte 76 Nordeste 0 -- -- 54
2018-01-12 08:00:00 8.8 42 Norte 75 Norte 0 -- -- 58
2018-01-12 07:00:00 8.9 46 Norte 80 Norte 0 -- -- 59
2018-01-12 06:00:00 9.1 48 Norte 79 Norte 0 -- -- 56
2018-01-12 05:00:00 8.9 32 Norte 55 Norte 0 -- -- 58
2018-01-12 04:00:00 9.2 27 Norte 64 Noroeste 0 -- -- 57
2018-01-12 03:00:00 9.1 16 Norte 35 Noroeste 0 -- -- 55
2018-01-12 02:00:00 9 12 Noroeste 35 Oeste 0 -- -- 56
2018-01-12 01:00:00 8.7 18 Noroeste 41 Noroeste 0 -- -- 59
2018-01-12 00:00:00 8.4 13 Noroeste 39 Noroeste 0 -- -- 62
2018-01-11 23:00:00 8.6 14 Noroeste 45 Noroeste 0 -- -- 61
2018-01-11 22:00:00 8.9 23 Norte 47 Noroeste 0 -- -- 60
2018-01-11 21:00:00 9.2 18 Noroeste 38 Noroeste 0 -- -- 60
2018-01-11 20:00:00 9.6 19 Norte 44 Noroeste 0 -- -- 57
2018-01-11 19:00:00 9.6 14 Norte 35 Norte 0 -- -- 56
2018-01-11 18:00:00 9.9 21 Norte 48 Noroeste 0 -- -- 55
2018-01-11 17:00:00 10.6 20 Norte 46 Norte 0 -- -- 52
2018-01-11 16:00:00 10.7 22 Norte 49 Norte 0 -- -- 53
2018-01-11 15:00:00 11.4 21 Norte 54 Norte 0 -- -- 51
2018-01-11 14:00:00 10.9 28 Norte 54 Norte 0 -- -- 54
2018-01-11 13:00:00 11.6 24 Norte 52 Norte 0 -- -- 51
2018-01-11 12:00:00 10.8 23 Norte 41 Norte 0 -- -- 53
2018-01-11 11:00:00 10.7 10 Nordeste 34 Noroeste 0 -- -- 53
2018-01-11 10:00:00 10.4 14 Norte 39 Nordeste 0 -- -- 51
2018-01-11 09:00:00 10.5 14 Norte 45 Norte 0 -- -- 49
2018-01-11 08:00:00 10.5 18 Norte 41 Norte 0 -- -- 47
2018-01-11 07:00:00 10.3 17 Norte 46 Norte 0 -- -- 49
2018-01-11 06:00:00 10.4 18 Norte 55 Norte 0 -- -- 50
2018-01-11 05:00:00 10.2 33 Norte 67 Norte 0 -- -- 53
2018-01-11 04:00:00 9.6 28 Norte 62 Noroeste 0.2 -- -- 61
2018-01-11 03:00:00 8.5 29 Norte 60 Norte 1.2 -- -- 72
2018-01-11 02:00:00 7.7 31 Norte 61 Norte 0.4 -- -- 77
2018-01-11 01:00:00 9.1 31 Norte 55 Noroeste 0 -- -- 71
2018-01-11 00:00:00 7.1 4 Nordeste 12 Nordeste 0 -- -- 75
2018-01-10 23:00:00 6.1 6 Nordeste 13 Nordeste 0 -- -- 80
2018-01-10 22:00:00 5.6 6 Nordeste 13 Nordeste 0 -- -- 81
2018-01-10 21:00:00 5.5 11 Nordeste 17 Nordeste 0 -- -- 81
2018-01-10 20:00:00 6.4 5 Nordeste 13 Nordeste 0 -- -- 75
2018-01-10 19:00:00 7.7 6 Nordeste 17 Nordeste 0 -- -- 72
2018-01-10 18:00:00 9.1 6 Nordeste 10 Sur 0 -- -- 67
2018-01-10 17:00:00 13 7 Sur 15 Sur 0 -- -- 52
2018-01-10 16:00:00 14.4 8 Sur 13 Sudoeste 0 -- -- 46
2018-01-10 15:00:00 14.4 6 Sur 13 Sur 0 -- -- 44
2018-01-10 14:00:00 14 8 Sur 15 Sur 0 -- -- 44
2018-01-10 13:00:00 13.8 8 Sudoeste 13 Sudoeste 0 -- -- 49
2018-01-10 12:00:00 13.3 3 Sur 9 Sudoeste 0 -- -- 50
2018-01-10 11:00:00 9.7 0 Calma 5 Sudoeste 0 -- -- 73
2018-01-10 10:00:00 7.4 0 Calma 8 Nordeste 0 -- -- 79
2018-01-10 09:00:00 5.4 2 Nordeste 9 Sudoeste 0 -- -- 85
2018-01-10 08:00:00 6.2 5 Nordeste 17 Nordeste 0 -- -- 77
2018-01-10 07:00:00 6.1 10 Nordeste 17 Nordeste 0 -- -- 76
2018-01-10 06:00:00 4.9 9 Nordeste 17 Nordeste 0 -- -- 80
2018-01-10 05:00:00 3.6 7 Nordeste 13 Nordeste 0 -- -- 83
2018-01-10 04:00:00 3.8 5 Nordeste 11 Norte 0 -- -- 81
2018-01-10 03:00:00 5.3 8 Norte 17 Nordeste 0 -- -- 72
2018-01-10 02:00:00 5.9 12 Nordeste 17 Nordeste 0 -- -- 69
2018-01-10 01:00:00 6.3 9 Nordeste 14 Nordeste 0 -- -- 71
2018-01-10 00:00:00 5.9 7 Nordeste 14 Nordeste 0 -- -- 71
2018-01-09 23:00:00 5.4 11 Nordeste 16 Nordeste 0 -- -- 72
2018-01-09 22:00:00 5.2 10 Nordeste 17 Nordeste 0 -- -- 71
2018-01-09 21:00:00 5.2 9 Nordeste 17 Nordeste 0 -- -- 72
2018-01-09 20:00:00 5.9 4 Nordeste 10 Este 0 -- -- 70
2018-01-09 19:00:00 8.7 3 Nordeste 20 Sudoeste 0 -- -- 59
2018-01-09 18:00:00 11 13 Sudoeste 26 Sudoeste 0 -- -- 45
2018-01-09 17:00:00 12.1 10 Sudoeste 34 Oeste 0 -- -- 43
2018-01-09 16:00:00 14.6 17 Sudoeste 28 Sudoeste 0 -- -- 38
2018-01-09 15:00:00 15.5 10 Sudoeste 19 Sur 0 -- -- 37
2018-01-09 14:00:00 13.6 4 Sur 10 Sur 0 -- -- 49
2018-01-09 13:00:00 11.4 6 Sur 12 Sur 0 -- -- 64
2018-01-09 12:00:00 10.3 4 Sudoeste 11 Sur 0 -- -- 75
2018-01-09 11:00:00 9 4 Sudeste 9 Sudeste 0 -- -- 84
2018-01-09 10:00:00 7.6 4 Sur 9 Sur 0 -- -- 90
2018-01-09 09:00:00 5.6 3 Nordeste 8 Nordeste 0 -- -- 94
2018-01-09 08:00:00 4.9 3 Nordeste 11 Nordeste 0 -- -- 92
2018-01-09 07:00:00 5.6 10 Nordeste 15 Nordeste 0 -- -- 91
2018-01-09 06:00:00 6.3 7 Nordeste 17 Nordeste 0 -- -- 89
2018-01-09 05:00:00 7.2 10 Nordeste 15 Nordeste 0 -- -- 89
2018-01-09 04:00:00 7.4 0 Calma 6 Nordeste 0 -- -- 90
2018-01-09 03:00:00 7.9 7 Nordeste 12 Nordeste 0 -- -- 88
2018-01-09 02:00:00 7.9 3 Nordeste 6 Nordeste 0 -- -- 89
2018-01-09 01:00:00 8.2 3 Nordeste 8 Este 0 -- -- 88
2018-01-09 00:00:00 8 0 Calma 6 Sudeste 0 -- -- 89
2018-01-08 23:00:00 8.1 2 Sudeste 5 Sur 0 -- -- 88
2018-01-08 22:00:00 8.6 3 Norte 6 Nordeste 0 -- -- 85
2018-01-08 21:00:00 8.9 3 Este 12 Sur 0 -- -- 83
2018-01-08 20:00:00 8.4 3 Oeste 8 Norte 0 -- -- 87
2018-01-08 19:00:00 9.1 3 Nordeste 22 Nordeste 0 -- -- 82
2018-01-08 18:00:00 10 13 Nordeste 34 Nordeste 0 -- -- 79
2018-01-08 17:00:00 10.4 18 Nordeste 35 Nordeste 0 -- -- 79
2018-01-08 16:00:00 11.6 8 Nordeste 30 Nordeste 0 -- -- 72
2018-01-08 15:00:00 11.9 13 Norte 31 Norte 0 -- -- 74
2018-01-08 14:00:00 12.4 16 Nordeste 27 Nordeste 0 -- -- 70
2018-01-08 13:00:00 11.7 4 Sur 9 Sudoeste 0 -- -- 79
2018-01-08 12:00:00 10.7 0 Calma 15 Nordeste 0 -- -- 82
2018-01-08 11:00:00 9.4 10 Nordeste 14 Nordeste 0 -- -- 85
2018-01-08 10:00:00 8.2 3 Oeste 17 Nordeste 0 -- -- 87
2018-01-08 09:00:00 7.4 16 Nordeste 22 Nordeste 0 -- -- 88
2018-01-08 08:00:00 6.9 13 Nordeste 21 Nordeste 0 -- -- 89
2018-01-08 07:00:00 6.2 9 Nordeste 17 Nordeste 0 -- -- 90
2018-01-08 06:00:00 6 5 Noroeste 22 Nordeste 0 -- -- 89
2018-01-08 05:00:00 6 13 Nordeste 21 Nordeste 0 -- -- 93
2018-01-08 04:00:00 5.3 0 Calma 15 Nordeste 0 -- -- 93
2018-01-08 03:00:00 5.8 6 Norte 13 Nordeste 0 -- -- 95
2018-01-08 02:00:00 6.1 3 Nordeste 11 Norte 0 -- -- 95
2018-01-08 01:00:00 6.8 2 Norte 7 Sudeste 0.2 -- -- 94
2018-01-08 00:00:00 8 3 Sudeste 15 Sudeste 0 -- -- 93
2018-01-07 23:00:00 8.6 8 Sudeste 15 Sur 0 -- -- 94
2018-01-07 22:00:00 8.9 13 Sur 26 Sur 1 -- -- 94
2018-01-07 21:00:00 10.2 10 Sudeste 37 Sudeste 5 -- -- 93
2018-01-07 20:00:00 11.4 17 Sudeste 66 Este 2.8 -- -- 81
2018-01-07 19:00:00 12.6 14 Este 49 Sudeste 0.2 -- -- 85
2018-01-07 18:00:00 13 22 Este 42 Este 0.2 -- -- 88
2018-01-07 17:00:00 12.6 25 Sudeste 46 Sudeste 3.8 -- -- 92
2018-01-07 16:00:00 11.2 5 Nordeste 27 Sudeste 9.2 -- -- 92
2018-01-07 15:00:00 13.6 12 Sudeste 26 Sudeste 4 -- -- 86
2018-01-07 14:00:00 13.9 15 Sur 26 Sur 0 -- -- 84
2018-01-07 13:00:00 13.8 12 Sudeste 21 Sur 0.2 -- -- 84
2018-01-07 12:00:00 14.2 10 Sudeste 22 Sudeste 0 -- -- 75
2018-01-07 11:00:00 14 9 Sur 20 Sur 0 -- -- 78
2018-01-07 10:00:00 14.1 12 Sur 25 Sur 0 -- -- 80
2018-01-07 09:00:00 14.1 12 Sudeste 23 Sudeste 0 -- -- 72
2018-01-07 08:00:00 13.2 9 Este 15 Este 0 -- -- 88
2018-01-07 07:00:00 13.3 10 Sudeste 21 Sudeste 0 -- -- 88
2018-01-07 06:00:00 13.4 10 Este 22 Sudeste 0 -- -- 88
2018-01-07 05:00:00 13.5 14 Este 24 Este 0 -- -- 87
2018-01-07 04:00:00 13.4 14 Sudeste 33 Este 0 -- -- 88
2018-01-07 03:00:00 13.3 14 Este 30 Este 0 -- -- 87
2018-01-07 02:00:00 13.2 11 Sudeste 24 Este 0 -- -- 86
2018-01-07 01:00:00 13.1 10 Este 39 Sudeste 0 -- -- 86
2018-01-07 00:00:00 13.4 15 Sudeste 33 Sudeste 0 -- -- 86
2018-01-06 23:00:00 12.9 5 Sudeste 30 Sudeste 0.2 -- -- 88
2018-01-06 22:00:00 12.7 14 Este 34 Este 1.4 -- -- 88
2018-01-06 21:00:00 13 15 Sudeste 38 Sur 0.2 -- -- 86
2018-01-06 20:00:00 13 17 Sudeste 32 Este 0 -- -- 87
2018-01-06 19:00:00 13.2 9 Sudeste 20 Sudeste 0 -- -- 87
2018-01-06 18:00:00 12.8 4 Sudeste 7 Este 0 -- -- 86
2018-01-06 17:00:00 13.4 2 Sur 17 Sur 0 -- -- 85
2018-01-06 16:00:00 13.6 6 Sur 18 Sur 0 -- -- 85
2018-01-06 15:00:00 14.2 6 Sudeste 15 Sudeste 0 -- -- 80
2018-01-06 14:00:00 12.7 3 Oeste 8 Sudoeste 0 -- -- 80
2018-01-06 13:00:00 12.9 2 Sudoeste 8 Sudoeste 0 -- -- 77
2018-01-06 12:00:00 12.3 5 Sur 8 Sur 0 -- -- 79
2018-01-06 11:00:00 9.6 0 Calma 4 Sur 0 -- -- 95
2018-01-06 10:00:00 8.2 0 Calma 8 Nordeste 0 -- -- 98
2018-01-06 09:00:00 6.6 4 Nordeste 10 Nordeste 0 -- -- 97
2018-01-06 08:00:00 5.5 2 Norte 11 Nordeste 0 -- -- 97
2018-01-06 07:00:00 6.2 4 Norte 6 Nordeste 0 -- -- 96
2018-01-06 06:00:00 5.7 6 Norte 8 Norte 0 -- -- 96
2018-01-06 05:00:00 5.4 2 Este 8 Norte 0 -- -- 94
2018-01-06 04:00:00 6.9 5 Nordeste 13 Nordeste 0 -- -- 96
2018-01-06 03:00:00 7.8 7 Nordeste 11 Nordeste 0 -- -- 95
2018-01-06 02:00:00 9 4 Nordeste 12 Sudeste 0 -- -- 95
2018-01-06 01:00:00 7.9 4 Sur 12 Nordeste 0 -- -- 86
2018-01-06 00:00:00 8.5 3 Nordeste 12 Nordeste 0 -- -- 86
2018-01-05 23:00:00 8.9 4 Nordeste 10 Nordeste 0 -- -- 85
2018-01-05 22:00:00 8.9 3 Nordeste 10 Nordeste 0 -- -- 85
2018-01-05 21:00:00 9.4 7 Nordeste 12 Nordeste 0 -- -- 83
2018-01-05 20:00:00 9.6 5 Nordeste 10 Nordeste 0 -- -- 83
2018-01-05 19:00:00 11 4 Nordeste 15 Nordeste 0 -- -- 79
2018-01-05 18:00:00 13.2 4 Norte 9 Sur 0 -- -- 72
2018-01-05 17:00:00 17.8 4 Sur 10 Oeste 0 -- -- 57
2018-01-05 16:00:00 19 5 Oeste 12 Sudoeste 0 -- -- 52
2018-01-05 15:00:00 18.4 8 Sur 15 Sur 0 -- -- 54
2018-01-05 14:00:00 18 9 Sur 14 Sudoeste 0 -- -- 55
2018-01-05 13:00:00 16.7 6 Sur 10 Sur 0 -- -- 58
2018-01-05 12:00:00 15.6 5 Sudoeste 13 Este 0 -- -- 60
2018-01-05 11:00:00 13 4 Sur 11 Sudoeste 0 -- -- 72
2018-01-05 10:00:00 10.6 3 Sur 6 Sudoeste 0 -- -- 83
2018-01-05 09:00:00 7.3 0 Calma 5 Sur 0 -- -- 92
2018-01-05 08:00:00 7.5 2 Nordeste 10 Nordeste 0 -- -- 90
2018-01-05 07:00:00 8.8 4 Norte 14 Norte 0 -- -- 86
2018-01-05 06:00:00 8.1 3 Norte 10 Nordeste 0 -- -- 90
2018-01-05 05:00:00 7.8 3 Nordeste 11 Norte 0 -- -- 92
2018-01-05 04:00:00 7.7 2 Nordeste 9 Sur 0 -- -- 90
2018-01-05 03:00:00 9.5 2 Sudoeste 13 Nordeste 0 -- -- 83
2018-01-05 02:00:00 10.5 8 Nordeste 13 Nordeste 0 -- -- 84
2018-01-05 01:00:00 9.7 4 Nordeste 11 Nordeste 0 -- -- 84
2018-01-05 00:00:00 10.1 4 Nordeste 13 Este 0 -- -- 82
2018-01-04 23:00:00 11 6 Nordeste 13 Nordeste 0 -- -- 78
2018-01-04 22:00:00 12.6 9 Nordeste 15 Nordeste 0 -- -- 75
2018-01-04 21:00:00 13.7 6 Nordeste 13 Nordeste 0 -- -- 72
2018-01-04 20:00:00 12.6 0 Calma 4 Nordeste 0 -- -- 76
2018-01-04 19:00:00 12.8 3 Nordeste 8 Norte 0 -- -- 75
2018-01-04 18:00:00 14.9 3 Oeste 32 Nordeste 0 -- -- 67
2018-01-04 17:00:00 18.4 15 Norte 36 Norte 0 -- -- 51
2018-01-04 16:00:00 19.5 18 Norte 42 Norte 0 -- -- 49
2018-01-04 15:00:00 20.8 22 Norte 45 Norte 0 -- -- 47
2018-01-04 14:00:00 20.8 21 Norte 44 Norte 0 -- -- 47
2018-01-04 13:00:00 20.5 21 Norte 50 Norte 0 -- -- 50
2018-01-04 12:00:00 20 27 Norte 53 Norte 0 -- -- 52
2018-01-04 11:00:00 14.9 10 Sudoeste 18 Sur 0 -- -- 77
2018-01-04 10:00:00 11 2 Sudoeste 9 Sudeste 0 -- -- 90
2018-01-04 09:00:00 9.7 2 Nordeste 18 Nordeste 0 -- -- 91
2018-01-04 08:00:00 10.3 14 Nordeste 20 Nordeste 0 -- -- 90
2018-01-04 07:00:00 9.7 5 Norte 17 Norte 0 -- -- 89
2018-01-04 06:00:00 10 4 Nordeste 13 Norte 0 -- -- 89
2018-01-04 05:00:00 10.9 4 Noroeste 17 Nordeste 0 -- -- 84
2018-01-04 04:00:00 11.1 10 Nordeste 18 Nordeste 0 -- -- 82
2018-01-04 03:00:00 10.5 5 Nordeste 9 Nordeste 0 -- -- 84
2018-01-04 02:00:00 11.7 9 Nordeste 13 Este 0 -- -- 79
2018-01-04 01:00:00 13.6 5 Sur 16 Sur 0 -- -- 72
2018-01-04 00:00:00 13.6 10 Nordeste 16 Nordeste 0 -- -- 65
2018-01-03 23:00:00 13.8 2 Norte 17 Nordeste 0 -- -- 62
2018-01-03 22:00:00 14.9 8 Nordeste 21 Norte 0 -- -- 57
2018-01-03 21:00:00 14.1 12 Nordeste 21 Nordeste 0 -- -- 60
2018-01-03 20:00:00 13.2 0 Calma 18 Oeste 0 -- -- 70
2018-01-03 19:00:00 14.7 8 Noroeste 16 Oeste 0 -- -- 60
2018-01-03 18:00:00 17 3 Sudoeste 19 Sudeste 0 -- -- 52
2018-01-03 17:00:00 19.7 10 Oeste 34 Sur 0 -- -- 47
2018-01-03 16:00:00 20.3 3 Sudoeste 23 Sur 0 -- -- 47
2018-01-03 15:00:00 19.8 11 Sur 23 Sur 0 -- -- 49
2018-01-03 14:00:00 20.2 7 Sudeste 28 Sudoeste 0 -- -- 49
2018-01-03 13:00:00 19.8 7 Sudeste 20 Sur 0 -- -- 48
2018-01-03 12:00:00 18.7 9 Sudoeste 19 Noroeste 0 -- -- 52
2018-01-03 11:00:00 13.9 6 Nordeste 15 Oeste 0 -- -- 69
2018-01-03 10:00:00 10 12 Sudeste 22 Sur 0 -- -- 82
2018-01-03 09:00:00 9.9 9 Nordeste 15 Nordeste 0 -- -- 80
2018-01-03 08:00:00 8 6 Nordeste 13 Nordeste 0 -- -- 88
2018-01-03 07:00:00 8 3 Noroeste 13 Nordeste 0 -- -- 85
2018-01-03 06:00:00 9.8 3 Nordeste 15 Norte 0 -- -- 76
2018-01-03 05:00:00 10.2 4 Nordeste 13 Nordeste 0 -- -- 76
2018-01-03 04:00:00 9.4 4 Nordeste 9 Norte 0 -- -- 77
2018-01-03 03:00:00 9.1 4 Norte 16 Nordeste 0 -- -- 78
2018-01-03 02:00:00 8.3 6 Nordeste 13 Oeste 0 -- -- 81
2018-01-03 01:00:00 9.3 5 Norte 17 Nordeste 0 -- -- 77
2018-01-03 00:00:00 8.4 5 Este 13 Nordeste 0 -- -- 83
2018-01-02 23:00:00 8.5 3 Norte 17 Nordeste 0 -- -- 81
2018-01-02 22:00:00 8.4 11 Nordeste 19 Nordeste 0 -- -- 81
2018-01-02 21:00:00 8.7 3 Nordeste 14 Nordeste 0 -- -- 81
2018-01-02 20:00:00 9.3 7 Norte 15 Nordeste 0 -- -- 79
2018-01-02 19:00:00 9 8 Nordeste 13 Nordeste 0 -- -- 81
2018-01-02 18:00:00 10.1 5 Nordeste 9 Nordeste 0 -- -- 78
2018-01-02 17:00:00 12.7 3 Este 9 Sur 0 -- -- 68
2018-01-02 16:00:00 13.7 7 Sur 10 Sudoeste 0 -- -- 60
2018-01-02 15:00:00 13.4 4 Sur 7 Sur 0 -- -- 60
2018-01-02 14:00:00 13.6 4 Sur 10 Oeste 0 -- -- 60
2018-01-02 13:00:00 13 5 Oeste 10 Sur 0 -- -- 65
2018-01-02 12:00:00 12.8 4 Sudoeste 9 Oeste 0 -- -- 64
2018-01-02 11:00:00 12.1 2 Oeste 6 Oeste 0 -- -- 66
2018-01-02 10:00:00 9.6 0 Calma 6 Este 0 -- -- 75
2018-01-02 09:00:00 5.9 4 Nordeste 10 Norte 0 -- -- 87
2018-01-02 08:00:00 5.9 6 Nordeste 15 Norte 0 -- -- 83
2018-01-02 07:00:00 6.2 7 Nordeste 22 Nordeste 0 -- -- 82
2018-01-02 06:00:00 7.3 12 Nordeste 19 Norte 0 -- -- 76
2018-01-02 05:00:00 8.9 10 Noroeste 27 Noroeste 0 -- -- 68
2018-01-02 04:00:00 9.4 9 Oeste 47 Noroeste 0 -- -- 69
2018-01-02 03:00:00 11.6 20 Noroeste 69 Norte 0 -- -- 62
2018-01-02 02:00:00 10.8 24 Norte 71 Noroeste 0 -- -- 63
2018-01-02 01:00:00 10.3 37 Norte 73 Norte 0.2 -- -- 71
2018-01-02 00:00:00 9.1 25 Norte 45 Noroeste 2.6 -- -- 78
2018-01-01 23:00:00 9 24 Norte 62 Norte 4.4 -- -- 79
2018-01-01 22:00:00 9.7 17 Noroeste 38 Norte 0.2 -- -- 74
2018-01-01 21:00:00 7.9 5 Norte 10 Noroeste 0 -- -- 89
2018-01-01 20:00:00 8.8 7 Norte 15 Noroeste 0 -- -- 89
2018-01-01 19:00:00 9.9 6 Norte 37 Norte 1.2 -- -- 82
2018-01-01 18:00:00 11.1 10 Nordeste 18 Nordeste 0 -- -- 52
2018-01-01 17:00:00 13.1 6 Sudoeste 15 Sudoeste 0 -- -- 45
2018-01-01 16:00:00 14.8 11 Sudoeste 21 Oeste 0 -- -- 39
2018-01-01 15:00:00 15.2 4 Sur 20 Sur 0 -- -- 51
2018-01-01 14:00:00 15.5 11 Sudoeste 21 Sur 0 -- -- 38
2018-01-01 13:00:00 14.5 10 Sur 16 Sur 0 -- -- 60
2018-01-01 12:00:00 13.7 6 Sudoeste 14 Oeste 0 -- -- 64
2018-01-01 11:00:00 12.9 9 Sudoeste 21 Oeste 0 -- -- 64
2018-01-01 10:00:00 12.4 14 Oeste 24 Oeste 0 -- -- 55
2018-01-01 09:00:00 12.6 6 Sudoeste 40 Norte 0 -- -- 44
2018-01-01 08:00:00 12 22 Norte 49 Noroeste 0 -- -- 42
2018-01-01 07:00:00 12.3 21 Norte 59 Norte 0 -- -- 41
2018-01-01 06:00:00 12.1 32 Noroeste 84 Noroeste 0 -- -- 43
2018-01-01 05:00:00 12.7 36 Noroeste 71 Noroeste 0 -- -- 41
2018-01-01 04:00:00 13.5 35 Noroeste 69 Noroeste 0 -- -- 32
2018-01-01 03:00:00 13.6 30 Norte 72 Noroeste 0 -- -- 34
2018-01-01 02:00:00 13.4 27 Norte 66 Norte 0 -- -- 42
2018-01-01 01:00:00 13.8 26 Norte 62 Norte 0 -- -- 43
2018-01-01 00:00:00 13.8 36 Norte 65 Noroeste 0 -- -- 44
2017-12-31 23:00:00 13.1 32 Norte 70 Noroeste 0 -- -- 49
2017-12-31 22:00:00 13.5 18 Noroeste 40 Norte 0 -- -- 53
2017-12-31 21:00:00 15.9 13 Norte 45 Nordeste 0 -- -- 46
2017-12-31 20:00:00 13.8 7 Sur 36 Nordeste 0 -- -- 59
2017-12-31 19:00:00 13.4 5 Norte 29 Nordeste 0 -- -- 63
2017-12-31 18:00:00 14.7 12 Nordeste 31 Nordeste 0 -- -- 62
2017-12-31 17:00:00 17.3 9 Sudeste 19 Sudeste 0 -- -- 51
2017-12-31 16:00:00 19.8 2 Sur 14 Sudeste 0 -- -- 40
2017-12-31 15:00:00 19.5 9 Sudeste 14 Sudeste 0 -- -- 41
2017-12-31 14:00:00 18.4 4 Sur 10 Sudoeste 0 -- -- 44
2017-12-31 13:00:00 15.8 4 Este 12 Sur 0 -- -- 57
2017-12-31 12:00:00 13.7 5 Sur 12 Sur 0 -- -- 65
2017-12-31 11:00:00 12.5 4 Sudoeste 8 Sudoeste 0 -- -- 70
2017-12-31 10:00:00 11.3 4 Sudoeste 10 Nordeste 0 -- -- 74
2017-12-31 09:00:00 7.5 7 Nordeste 11 Nordeste 0 -- -- 89
2017-12-31 08:00:00 6.1 2 Sudoeste 8 Sudoeste 0 -- -- 89
2017-12-31 07:00:00 7.7 3 Nordeste 8 Nordeste 0 -- -- 88
2017-12-31 06:00:00 7.3 2 Norte 7 Nordeste 0 -- -- 86
2017-12-31 05:00:00 7.5 3 Nordeste 13 Norte 0 -- -- 84
2017-12-31 04:00:00 7.8 0 Calma 12 Norte 0 -- -- 84
2017-12-31 03:00:00 8.4 4 Norte 12 Nordeste 0 -- -- 82
2017-12-31 02:00:00 8.8 5 Nordeste 12 Nordeste 0 -- -- 80
2017-12-31 01:00:00 8.7 0 Calma 12 Nordeste 0 -- -- 80